sensor_id;sensor_type;location;lat;lon;timestamp;temperature;humidity
41694;DHT22;27377;50.666;9.150;2023-03-08T00:01:09;2.60;99.90
41694;DHT22;27377;50.666;9.150;2023-03-08T00:03:35;2.60;99.90
41694;DHT22;27377;50.666;9.150;2023-03-08T00:06:04;2.50;99.90
41694;DHT22;27377;50.666;9.150;2023-03-08T00:08:29;2.50;99.90
41694;DHT22;27377;50.666;9.150;2023-03-08T00:10:55;2.60;99.90
41694;DHT22;27377;50.666;9.150;2023-03-08T00:13:20;2.60;99.90
41694;DHT22;27377;50.666;9.150;2023-03-08T00:15:46;2.60;99.90
41694;DHT22;27377;50.666;9.150;2023-03-08T00:18:11;2.50;99.90
41694;DHT22;27377;50.666;9.150;2023-03-08T00:20:37;2.50;99.90
41694;DHT22;27377;50.666;9.150;2023-03-08T00:23:02;2.50;99.90
41694;DHT22;27377;50.666;9.150;2023-03-08T00:25:28;2.50;99.90
41694;DHT22;27377;50.666;9.150;2023-03-08T00:27:53;2.50;99.90
41694;DHT22;27377;50.666;9.150;2023-03-08T00:30:19;2.50;99.90
41694;DHT22;27377;50.666;9.150;2023-03-08T00:32:44;2.50;99.90
41694;DHT22;27377;50.666;9.150;2023-03-08T00:35:10;2.50;99.90
41694;DHT22;27377;50.666;9.150;2023-03-08T00:37:35;2.50;99.90
41694;DHT22;27377;50.666;9.150;2023-03-08T00:40:01;2.50;99.90
41694;DHT22;27377;50.666;9.150;2023-03-08T00:42:27;2.50;99.90
41694;DHT22;27377;50.666;9.150;2023-03-08T00:44:52;2.50;99.90
41694;DHT22;27377;50.666;9.150;2023-03-08T00:47:18;2.50;99.90
41694;DHT22;27377;50.666;9.150;2023-03-08T00:49:43;2.50;99.90
41694;DHT22;27377;50.666;9.150;2023-03-08T00:52:09;2.50;99.90
41694;DHT22;27377;50.666;9.150;2023-03-08T00:54:35;2.50;99.90
41694;DHT22;27377;50.666;9.150;2023-03-08T00:57:00;2.50;99.90
41694;DHT22;27377;50.666;9.150;2023-03-08T00:59:26;2.50;99.90
41694;DHT22;27377;50.666;9.150;2023-03-08T01:01:51;2.50;99.90
41694;DHT22;27377;50.666;9.150;2023-03-08T01:04:17;2.50;99.90
41694;DHT22;27377;50.666;9.150;2023-03-08T01:06:42;2.50;99.90
41694;DHT22;27377;50.666;9.150;2023-03-08T01:09:08;2.50;99.90
41694;DHT22;27377;50.666;9.150;2023-03-08T01:11:34;2.50;99.90
41694;DHT22;27377;50.666;9.150;2023-03-08T01:14:02;2.50;99.90
41694;DHT22;27377;50.666;9.150;2023-03-08T01:16:30;2.40;99.90
41694;DHT22;27377;50.666;9.150;2023-03-08T01:18:58;2.50;99.90
41694;DHT22;27377;50.666;9.150;2023-03-08T01:21:24;2.40;99.90
41694;DHT22;27377;50.666;9.150;2023-03-08T01:23:50;2.40;99.90
41694;DHT22;27377;50.666;9.150;2023-03-08T01:26:18;2.40;99.90
41694;DHT22;27377;50.666;9.150;2023-03-08T01:28:44;2.40;99.90
41694;DHT22;27377;50.666;9.150;2023-03-08T01:31:15;2.40;99.90
41694;DHT22;27377;50.666;9.150;2023-03-08T01:33:42;2.40;99.90
41694;DHT22;27377;50.666;9.150;2023-03-08T01:36:11;2.40;99.90
41694;DHT22;27377;50.666;9.150;2023-03-08T01:38:37;2.40;99.90
41694;DHT22;27377;50.666;9.150;2023-03-08T01:41:04;2.40;99.90
41694;DHT22;27377;50.666;9.150;2023-03-08T01:43:35;2.40;99.90
41694;DHT22;27377;50.666;9.150;2023-03-08T01:46:03;2.40;99.90
41694;DHT22;27377;50.666;9.150;2023-03-08T01:48:42;2.40;99.90
41694;DHT22;27377;50.666;9.150;2023-03-08T01:51:11;2.40;99.90
41694;DHT22;27377;50.666;9.150;2023-03-08T01:53:40;2.40;99.90
41694;DHT22;27377;50.666;9.150;2023-03-08T01:56:10;2.40;99.90
41694;DHT22;27377;50.666;9.150;2023-03-08T01:58:39;2.40;99.90
41694;DHT22;27377;50.666;9.150;2023-03-08T02:01:06;2.40;99.90
41694;DHT22;27377;50.666;9.150;2023-03-08T02:03:31;2.40;99.90
41694;DHT22;27377;50.666;9.150;2023-03-08T02:05:57;2.40;99.90
41694;DHT22;27377;50.666;9.150;2023-03-08T02:08:22;2.40;99.90
41694;DHT22;27377;50.666;9.150;2023-03-08T02:10:48;2.40;99.90
41694;DHT22;27377;50.666;9.150;2023-03-08T02:13:15;2.40;99.90
41694;DHT22;27377;50.666;9.150;2023-03-08T02:15:41;2.40;99.90
41694;DHT22;27377;50.666;9.150;2023-03-08T02:18:07;2.40;99.90
41694;DHT22;27377;50.666;9.150;2023-03-08T02:20:35;2.30;99.90
41694;DHT22;27377;50.666;9.150;2023-03-08T02:23:11;2.30;99.90
41694;DHT22;27377;50.666;9.150;2023-03-08T02:25:41;2.30;99.90
41694;DHT22;27377;50.666;9.150;2023-03-08T02:28:14;2.30;99.90
41694;DHT22;27377;50.666;9.150;2023-03-08T02:30:45;2.30;99.90
41694;DHT22;27377;50.666;9.150;2023-03-08T02:33:11;2.30;99.90
41694;DHT22;27377;50.666;9.150;2023-03-08T02:35:37;2.30;99.90
41694;DHT22;27377;50.666;9.150;2023-03-08T02:38:07;2.30;99.90
41694;DHT22;27377;50.666;9.150;2023-03-08T02:40:35;2.30;99.90
41694;DHT22;27377;50.666;9.150;2023-03-08T02:43:01;2.20;99.90
41694;DHT22;27377;50.666;9.150;2023-03-08T02:45:26;2.20;99.90
41694;DHT22;27377;50.666;9.150;2023-03-08T02:47:55;2.20;99.90
41694;DHT22;27377;50.666;9.150;2023-03-08T02:50:20;2.20;99.90
41694;DHT22;27377;50.666;9.150;2023-03-08T02:52:46;2.20;99.90
41694;DHT22;27377;50.666;9.150;2023-03-08T02:55:15;2.20;99.90
41694;DHT22;27377;50.666;9.150;2023-03-08T02:57:41;2.20;99.90
41694;DHT22;27377;50.666;9.150;2023-03-08T03:00:07;2.20;99.90
41694;DHT22;27377;50.666;9.150;2023-03-08T03:02:34;2.20;99.90
41694;DHT22;27377;50.666;9.150;2023-03-08T03:05:04;2.20;99.90
41694;DHT22;27377;50.666;9.150;2023-03-08T03:07:30;2.20;99.90
41694;DHT22;27377;50.666;9.150;2023-03-08T03:09:59;2.20;99.90
41694;DHT22;27377;50.666;9.150;2023-03-08T03:12:31;2.20;99.90
41694;DHT22;27377;50.666;9.150;2023-03-08T03:14:56;2.20;99.90
41694;DHT22;27377;50.666;9.150;2023-03-08T03:17:22;2.20;99.90
41694;DHT22;27377;50.666;9.150;2023-03-08T03:19:48;2.20;99.90
41694;DHT22;27377;50.666;9.150;2023-03-08T03:22:19;2.10;99.90
41694;DHT22;27377;50.666;9.150;2023-03-08T03:24:45;2.20;99.90
41694;DHT22;27377;50.666;9.150;2023-03-08T03:27:11;2.20;99.90
41694;DHT22;27377;50.666;9.150;2023-03-08T03:29:37;2.20;99.90
41694;DHT22;27377;50.666;9.150;2023-03-08T03:32:03;2.20;99.90
41694;DHT22;27377;50.666;9.150;2023-03-08T03:34:31;2.10;99.90
41694;DHT22;27377;50.666;9.150;2023-03-08T03:36:57;2.20;99.90
41694;DHT22;27377;50.666;9.150;2023-03-08T03:39:26;2.10;99.90
41694;DHT22;27377;50.666;9.150;2023-03-08T03:41:55;2.10;99.90
41694;DHT22;27377;50.666;9.150;2023-03-08T03:44:20;2.10;99.90
41694;DHT22;27377;50.666;9.150;2023-03-08T03:46:46;2.10;99.90
41694;DHT22;27377;50.666;9.150;2023-03-08T03:49:11;2.10;99.90
41694;DHT22;27377;50.666;9.150;2023-03-08T03:51:37;2.10;99.90
41694;DHT22;27377;50.666;9.150;2023-03-08T03:54:03;2.10;99.90
41694;DHT22;27377;50.666;9.150;2023-03-08T03:56:34;2.10;99.90
41694;DHT22;27377;50.666;9.150;2023-03-08T03:59:00;2.10;99.90
41694;DHT22;27377;50.666;9.150;2023-03-08T04:01:28;2.10;99.90
41694;DHT22;27377;50.666;9.150;2023-03-08T04:03:55;2.00;99.90
41694;DHT22;27377;50.666;9.150;2023-03-08T04:06:32;2.00;99.90
41694;DHT22;27377;50.666;9.150;2023-03-08T04:09:03;2.00;99.90
41694;DHT22;27377;50.666;9.150;2023-03-08T04:11:33;2.00;99.90
41694;DHT22;27377;50.666;9.150;2023-03-08T04:13:59;1.90;99.90
41694;DHT22;27377;50.666;9.150;2023-03-08T04:16:30;1.90;99.90
41694;DHT22;27377;50.666;9.150;2023-03-08T04:18:59;1.80;99.90
41694;DHT22;27377;50.666;9.150;2023-03-08T04:21:25;1.80;99.90
41694;DHT22;27377;50.666;9.150;2023-03-08T04:23:51;1.80;99.90
41694;DHT22;27377;50.666;9.150;2023-03-08T04:26:17;1.80;99.90
41694;DHT22;27377;50.666;9.150;2023-03-08T04:28:43;1.80;99.90
41694;DHT22;27377;50.666;9.150;2023-03-08T04:31:14;1.80;99.90
41694;DHT22;27377;50.666;9.150;2023-03-08T04:33:40;1.80;99.90
41694;DHT22;27377;50.666;9.150;2023-03-08T04:36:06;1.90;99.90
41694;DHT22;27377;50.666;9.150;2023-03-08T04:38:32;1.90;99.90
41694;DHT22;27377;50.666;9.150;2023-03-08T04:41:01;1.80;99.90
41694;DHT22;27377;50.666;9.150;2023-03-08T04:43:34;1.80;99.90
41694;DHT22;27377;50.666;9.150;2023-03-08T04:46:01;1.70;99.90
41694;DHT22;27377;50.666;9.150;2023-03-08T04:48:27;1.70;99.90
41694;DHT22;27377;50.666;9.150;2023-03-08T04:50:55;1.70;99.90
41694;DHT22;27377;50.666;9.150;2023-03-08T04:53:30;1.70;99.90
41694;DHT22;27377;50.666;9.150;2023-03-08T04:55:57;1.70;99.90
41694;DHT22;27377;50.666;9.150;2023-03-08T04:58:25;1.80;99.90
41694;DHT22;27377;50.666;9.150;2023-03-08T05:00:54;1.70;99.90
41694;DHT22;27377;50.666;9.150;2023-03-08T05:03:25;1.80;99.90
41694;DHT22;27377;50.666;9.150;2023-03-08T05:05:53;1.70;99.90
41694;DHT22;27377;50.666;9.150;2023-03-08T05:08:20;1.70;99.90
41694;DHT22;27377;50.666;9.150;2023-03-08T05:10:57;1.70;99.90
41694;DHT22;27377;50.666;9.150;2023-03-08T05:13:24;1.70;99.90
41694;DHT22;27377;50.666;9.150;2023-03-08T05:15:49;1.70;99.90
41694;DHT22;27377;50.666;9.150;2023-03-08T05:18:15;1.70;99.90
41694;DHT22;27377;50.666;9.150;2023-03-08T05:20:51;1.70;99.90
41694;DHT22;27377;50.666;9.150;2023-03-08T05:23:17;1.70;99.90
41694;DHT22;27377;50.666;9.150;2023-03-08T05:25:45;1.70;99.90
41694;DHT22;27377;50.666;9.150;2023-03-08T05:28:14;1.70;99.90
41694;DHT22;27377;50.666;9.150;2023-03-08T05:30:45;1.60;99.90
41694;DHT22;27377;50.666;9.150;2023-03-08T05:33:11;1.60;99.90
41694;DHT22;27377;50.666;9.150;2023-03-08T05:35:37;1.70;99.90
41694;DHT22;27377;50.666;9.150;2023-03-08T05:38:03;1.70;99.90
41694;DHT22;27377;50.666;9.150;2023-03-08T05:40:28;1.60;99.90
41694;DHT22;27377;50.666;9.150;2023-03-08T05:42:57;1.50;99.90
41694;DHT22;27377;50.666;9.150;2023-03-08T05:45:26;1.60;99.90
41694;DHT22;27377;50.666;9.150;2023-03-08T05:47:51;1.60;99.90
41694;DHT22;27377;50.666;9.150;2023-03-08T05:50:17;1.60;99.90
41694;DHT22;27377;50.666;9.150;2023-03-08T05:52:42;1.60;99.90
41694;DHT22;27377;50.666;9.150;2023-03-08T05:55:08;1.60;99.90
41694;DHT22;27377;50.666;9.150;2023-03-08T05:57:33;1.60;99.90
41694;DHT22;27377;50.666;9.150;2023-03-08T06:00:01;1.60;99.90
41694;DHT22;27377;50.666;9.150;2023-03-08T06:02:27;1.60;99.90
41694;DHT22;27377;50.666;9.150;2023-03-08T06:04:53;1.50;99.90
41694;DHT22;27377;50.666;9.150;2023-03-08T06:07:18;1.50;99.90
41694;DHT22;27377;50.666;9.150;2023-03-08T06:09:44;1.50;99.90
41694;DHT22;27377;50.666;9.150;2023-03-08T06:12:09;1.60;99.90
41694;DHT22;27377;50.666;9.150;2023-03-08T06:14:35;1.60;99.90
41694;DHT22;27377;50.666;9.150;2023-03-08T06:17:03;1.60;99.90
41694;DHT22;27377;50.666;9.150;2023-03-08T06:19:30;1.60;99.90
41694;DHT22;27377;50.666;9.150;2023-03-08T06:21:55;1.60;99.90
41694;DHT22;27377;50.666;9.150;2023-03-08T06:24:21;1.60;99.90
41694;DHT22;27377;50.666;9.150;2023-03-08T06:26:46;1.60;99.90
41694;DHT22;27377;50.666;9.150;2023-03-08T06:29:12;1.60;99.90
41694;DHT22;27377;50.666;9.150;2023-03-08T06:31:37;1.60;99.90
41694;DHT22;27377;50.666;9.150;2023-03-08T06:34:03;1.60;99.90
41694;DHT22;27377;50.666;9.150;2023-03-08T06:36:28;1.70;99.90
41694;DHT22;27377;50.666;9.150;2023-03-08T06:38:54;1.60;99.90
41694;DHT22;27377;50.666;9.150;2023-03-08T06:41:20;1.60;99.90
41694;DHT22;27377;50.666;9.150;2023-03-08T06:43:46;1.60;99.90
41694;DHT22;27377;50.666;9.150;2023-03-08T06:46:14;1.60;99.90
41694;DHT22;27377;50.666;9.150;2023-03-08T06:48:41;1.60;99.90
41694;DHT22;27377;50.666;9.150;2023-03-08T06:51:07;1.60;99.90
41694;DHT22;27377;50.666;9.150;2023-03-08T06:53:32;1.60;99.90
41694;DHT22;27377;50.666;9.150;2023-03-08T06:56:00;1.60;99.90
41694;DHT22;27377;50.666;9.150;2023-03-08T06:58:27;1.60;99.90
41694;DHT22;27377;50.666;9.150;2023-03-08T07:00:53;1.60;99.90
41694;DHT22;27377;50.666;9.150;2023-03-08T07:03:19;1.60;99.90
41694;DHT22;27377;50.666;9.150;2023-03-08T07:05:45;1.60;99.90
41694;DHT22;27377;50.666;9.150;2023-03-08T07:08:10;1.60;99.90
41694;DHT22;27377;50.666;9.150;2023-03-08T07:10:36;1.60;99.90
41694;DHT22;27377;50.666;9.150;2023-03-08T07:13:02;1.60;99.90
41694;DHT22;27377;50.666;9.150;2023-03-08T07:15:28;1.70;99.90
41694;DHT22;27377;50.666;9.150;2023-03-08T07:17:55;1.70;99.90
41694;DHT22;27377;50.666;9.150;2023-03-08T07:20:22;1.70;99.90
41694;DHT22;27377;50.666;9.150;2023-03-08T07:22:48;1.80;99.90
41694;DHT22;27377;50.666;9.150;2023-03-08T07:25:15;1.80;99.90
41694;DHT22;27377;50.666;9.150;2023-03-08T07:27:41;1.80;99.90
41694;DHT22;27377;50.666;9.150;2023-03-08T07:30:08;1.80;99.90
41694;DHT22;27377;50.666;9.150;2023-03-08T07:32:35;1.80;99.90
41694;DHT22;27377;50.666;9.150;2023-03-08T07:35:01;1.80;99.90
41694;DHT22;27377;50.666;9.150;2023-03-08T07:37:26;1.90;99.90
41694;DHT22;27377;50.666;9.150;2023-03-08T07:39:52;1.90;99.90
41694;DHT22;27377;50.666;9.150;2023-03-08T07:42:18;1.90;99.90
41694;DHT22;27377;50.666;9.150;2023-03-08T07:44:43;2.00;99.90
41694;DHT22;27377;50.666;9.150;2023-03-08T07:47:10;2.00;99.90
41694;DHT22;27377;50.666;9.150;2023-03-08T07:49:36;2.00;99.90
41694;DHT22;27377;50.666;9.150;2023-03-08T07:52:01;2.10;99.90
41694;DHT22;27377;50.666;9.150;2023-03-08T07:54:27;2.10;99.90
41694;DHT22;27377;50.666;9.150;2023-03-08T07:56:53;2.10;99.90
41694;DHT22;27377;50.666;9.150;2023-03-08T07:59:19;2.10;99.90
41694;DHT22;27377;50.666;9.150;2023-03-08T08:01:44;2.10;99.90
41694;DHT22;27377;50.666;9.150;2023-03-08T08:04:10;2.10;99.90
41694;DHT22;27377;50.666;9.150;2023-03-08T08:06:38;2.20;99.90
41694;DHT22;27377;50.666;9.150;2023-03-08T08:09:04;2.20;99.90
41694;DHT22;27377;50.666;9.150;2023-03-08T08:11:30;2.20;99.90
41694;DHT22;27377;50.666;9.150;2023-03-08T08:13:55;2.20;99.90
41694;DHT22;27377;50.666;9.150;2023-03-08T08:16:21;2.20;99.90
41694;DHT22;27377;50.666;9.150;2023-03-08T08:18:46;2.20;99.90
41694;DHT22;27377;50.666;9.150;2023-03-08T08:21:14;2.30;99.90
41694;DHT22;27377;50.666;9.150;2023-03-08T08:23:40;2.30;99.90
41694;DHT22;27377;50.666;9.150;2023-03-08T08:26:08;2.30;99.90
41694;DHT22;27377;50.666;9.150;2023-03-08T08:28:35;2.30;99.90
41694;DHT22;27377;50.666;9.150;2023-03-08T08:31:06;2.40;99.90
41694;DHT22;27377;50.666;9.150;2023-03-08T08:33:32;2.40;99.90
41694;DHT22;27377;50.666;9.150;2023-03-08T08:35:59;2.40;99.90
41694;DHT22;27377;50.666;9.150;2023-03-08T08:38:25;2.40;99.90
41694;DHT22;27377;50.666;9.150;2023-03-08T08:40:51;2.40;99.90
41694;DHT22;27377;50.666;9.150;2023-03-08T08:43:17;2.40;99.90
41694;DHT22;27377;50.666;9.150;2023-03-08T08:45:46;2.40;99.90
41694;DHT22;27377;50.666;9.150;2023-03-08T08:48:12;2.40;99.90
41694;DHT22;27377;50.666;9.150;2023-03-08T08:50:39;2.40;99.90
41694;DHT22;27377;50.666;9.150;2023-03-08T08:53:05;2.40;99.90
41694;DHT22;27377;50.666;9.150;2023-03-08T08:55:31;2.40;99.90
41694;DHT22;27377;50.666;9.150;2023-03-08T08:57:56;2.40;99.90
41694;DHT22;27377;50.666;9.150;2023-03-08T09:00:22;2.40;99.90
41694;DHT22;27377;50.666;9.150;2023-03-08T09:02:47;2.40;99.90
41694;DHT22;27377;50.666;9.150;2023-03-08T09:05:13;2.50;99.90
41694;DHT22;27377;50.666;9.150;2023-03-08T09:07:39;2.50;99.90
41694;DHT22;27377;50.666;9.150;2023-03-08T09:10:05;2.40;99.90
41694;DHT22;27377;50.666;9.150;2023-03-08T09:12:30;2.40;99.90
41694;DHT22;27377;50.666;9.150;2023-03-08T09:14:56;2.40;99.90
41694;DHT22;27377;50.666;9.150;2023-03-08T09:17:22;2.40;99.90
41694;DHT22;27377;50.666;9.150;2023-03-08T09:19:48;2.40;99.90
41694;DHT22;27377;50.666;9.150;2023-03-08T09:22:13;2.40;99.90
41694;DHT22;27377;50.666;9.150;2023-03-08T09:24:39;2.50;99.90
41694;DHT22;27377;50.666;9.150;2023-03-08T09:27:05;2.50;99.90
41694;DHT22;27377;50.666;9.150;2023-03-08T09:29:31;2.40;99.90
41694;DHT22;27377;50.666;9.150;2023-03-08T09:31:58;2.40;99.90
41694;DHT22;27377;50.666;9.150;2023-03-08T09:34:24;2.40;99.90
41694;DHT22;27377;50.666;9.150;2023-03-08T09:36:49;2.40;99.90
41694;DHT22;27377;50.666;9.150;2023-03-08T09:39:15;2.40;99.90
41694;DHT22;27377;50.666;9.150;2023-03-08T09:44:45;2.40;99.90
41694;DHT22;27377;50.666;9.150;2023-03-08T09:52:42;2.40;99.90
41694;DHT22;27377;50.666;9.150;2023-03-08T09:55:20;2.50;99.90
41694;DHT22;27377;50.666;9.150;2023-03-08T09:57:53;2.50;99.90
41694;DHT22;27377;50.666;9.150;2023-03-08T10:00:28;2.50;99.90
41694;DHT22;27377;50.666;9.150;2023-03-08T10:03:26;2.50;99.90
41694;DHT22;27377;50.666;9.150;2023-03-08T10:09:20;2.50;99.90
41694;DHT22;27377;50.666;9.150;2023-03-08T10:12:02;2.50;99.90
41694;DHT22;27377;50.666;9.150;2023-03-08T10:14:37;2.50;99.90
41694;DHT22;27377;50.666;9.150;2023-03-08T10:17:11;2.50;99.90
41694;DHT22;27377;50.666;9.150;2023-03-08T10:19:56;2.50;99.90
41694;DHT22;27377;50.666;9.150;2023-03-08T10:22:31;2.60;99.90
41694;DHT22;27377;50.666;9.150;2023-03-08T10:25:03;2.50;99.90
41694;DHT22;27377;50.666;9.150;2023-03-08T10:27:38;2.60;99.90
41694;DHT22;27377;50.666;9.150;2023-03-08T10:30:13;2.60;99.90
41694;DHT22;27377;50.666;9.150;2023-03-08T10:32:45;2.60;99.90
41694;DHT22;27377;50.666;9.150;2023-03-08T10:35:10;2.60;99.90
41694;DHT22;27377;50.666;9.150;2023-03-08T10:37:36;2.70;99.90
41694;DHT22;27377;50.666;9.150;2023-03-08T10:40:13;2.70;99.90
41694;DHT22;27377;50.666;9.150;2023-03-08T10:42:54;2.70;99.90
41694;DHT22;27377;50.666;9.150;2023-03-08T10:45:22;2.70;99.90
41694;DHT22;27377;50.666;9.150;2023-03-08T10:47:59;2.70;99.90
41694;DHT22;27377;50.666;9.150;2023-03-08T10:50:27;2.70;99.90
41694;DHT22;27377;50.666;9.150;2023-03-08T10:52:53;2.80;99.90
41694;DHT22;27377;50.666;9.150;2023-03-08T10:55:22;2.80;99.90
41694;DHT22;27377;50.666;9.150;2023-03-08T11:02:45;2.80;99.90
41694;DHT22;27377;50.666;9.150;2023-03-08T11:05:21;2.80;99.90
41694;DHT22;27377;50.666;9.150;2023-03-08T11:07:53;2.80;99.90
41694;DHT22;27377;50.666;9.150;2023-03-08T11:10:21;2.80;99.90
41694;DHT22;27377;50.666;9.150;2023-03-08T11:15:36;2.80;99.90
41694;DHT22;27377;50.666;9.150;2023-03-08T11:18:42;2.90;99.90
41694;DHT22;27377;50.666;9.150;2023-03-08T11:21:25;2.90;99.90
41694;DHT22;27377;50.666;9.150;2023-03-08T11:26:46;2.90;99.90
41694;DHT22;27377;50.666;9.150;2023-03-08T11:34:59;3.00;99.90
41694;DHT22;27377;50.666;9.150;2023-03-08T11:40:09;3.10;99.90
41694;DHT22;27377;50.666;9.150;2023-03-08T11:43:08;3.10;99.90
41694;DHT22;27377;50.666;9.150;2023-03-08T11:46:00;3.10;99.90
41694;DHT22;27377;50.666;9.150;2023-03-08T11:53:47;3.20;99.90
41694;DHT22;27377;50.666;9.150;2023-03-08T11:56:20;3.20;99.90
41694;DHT22;27377;50.666;9.150;2023-03-08T11:59:14;3.20;99.90
41694;DHT22;27377;50.666;9.150;2023-03-08T12:04:34;3.20;99.90
41694;DHT22;27377;50.666;9.150;2023-03-08T12:07:07;3.20;99.90
41694;DHT22;27377;50.666;9.150;2023-03-08T12:09:54;3.20;99.90
41694;DHT22;27377;50.666;9.150;2023-03-08T12:12:28;3.20;99.90
41694;DHT22;27377;50.666;9.150;2023-03-08T12:17:35;3.20;99.90
41694;DHT22;27377;50.666;9.150;2023-03-08T12:20:03;3.20;99.90
41694;DHT22;27377;50.666;9.150;2023-03-08T12:22:44;3.20;99.90
41694;DHT22;27377;50.666;9.150;2023-03-08T12:25:23;3.20;99.90
41694;DHT22;27377;50.666;9.150;2023-03-08T12:28:01;3.20;99.90
41694;DHT22;27377;50.666;9.150;2023-03-08T12:30:53;3.20;99.90
41694;DHT22;27377;50.666;9.150;2023-03-08T12:33:24;3.30;99.90
41694;DHT22;27377;50.666;9.150;2023-03-08T12:35:56;3.30;99.90
41694;DHT22;27377;50.666;9.150;2023-03-08T12:40:49;3.30;99.90
41694;DHT22;27377;50.666;9.150;2023-03-08T12:43:29;3.30;99.90
41694;DHT22;27377;50.666;9.150;2023-03-08T12:48:29;3.30;99.90
41694;DHT22;27377;50.666;9.150;2023-03-08T12:51:06;3.30;99.90
41694;DHT22;27377;50.666;9.150;2023-03-08T12:53:41;3.30;99.90
41694;DHT22;27377;50.666;9.150;2023-03-08T12:58:45;3.30;99.90
41694;DHT22;27377;50.666;9.150;2023-03-08T13:03:56;3.30;99.90
41694;DHT22;27377;50.666;9.150;2023-03-08T13:08:59;3.40;99.90
41694;DHT22;27377;50.666;9.150;2023-03-08T13:11:51;3.40;99.90
41694;DHT22;27377;50.666;9.150;2023-03-08T13:14:26;3.40;99.90
41694;DHT22;27377;50.666;9.150;2023-03-08T13:16:53;3.40;99.90
41694;DHT22;27377;50.666;9.150;2023-03-08T13:19:28;3.40;99.90
41694;DHT22;27377;50.666;9.150;2023-03-08T13:24:57;3.40;99.90
41694;DHT22;27377;50.666;9.150;2023-03-08T13:30:34;3.40;99.90
41694;DHT22;27377;50.666;9.150;2023-03-08T13:33:03;3.40;99.90
41694;DHT22;27377;50.666;9.150;2023-03-08T13:35:30;3.40;99.90
41694;DHT22;27377;50.666;9.150;2023-03-08T13:37:58;3.40;99.90
41694;DHT22;27377;50.666;9.150;2023-03-08T13:40:25;3.40;99.90
41694;DHT22;27377;50.666;9.150;2023-03-08T13:43:12;3.40;99.90
41694;DHT22;27377;50.666;9.150;2023-03-08T13:45:38;3.50;99.90
41694;DHT22;27377;50.666;9.150;2023-03-08T13:48:07;3.40;99.90
41694;DHT22;27377;50.666;9.150;2023-03-08T13:50:45;3.50;99.90
41694;DHT22;27377;50.666;9.150;2023-03-08T13:53:17;3.50;99.90
41694;DHT22;27377;50.666;9.150;2023-03-08T13:55:45;3.40;99.90
41694;DHT22;27377;50.666;9.150;2023-03-08T14:01:11;3.50;99.90
41694;DHT22;27377;50.666;9.150;2023-03-08T14:03:37;3.50;99.90
41694;DHT22;27377;50.666;9.150;2023-03-08T14:06:13;3.50;99.90
41694;DHT22;27377;50.666;9.150;2023-03-08T14:08:40;3.50;99.90
41694;DHT22;27377;50.666;9.150;2023-03-08T14:11:07;3.50;99.90
41694;DHT22;27377;50.666;9.150;2023-03-08T14:13:45;3.50;99.90
41694;DHT22;27377;50.666;9.150;2023-03-08T14:16:23;3.50;99.90
41694;DHT22;27377;50.666;9.150;2023-03-08T14:18:50;3.50;99.90
41694;DHT22;27377;50.666;9.150;2023-03-08T14:21:19;3.50;99.90
41694;DHT22;27377;50.666;9.150;2023-03-08T14:26:28;3.60;99.90
41694;DHT22;27377;50.666;9.150;2023-03-08T14:29:16;3.50;99.90
41694;DHT22;27377;50.666;9.150;2023-03-08T14:32:03;3.60;99.90
41694;DHT22;27377;50.666;9.150;2023-03-08T14:34:40;3.60;99.90
41694;DHT22;27377;50.666;9.150;2023-03-08T14:37:24;3.60;99.90
41694;DHT22;27377;50.666;9.150;2023-03-08T14:40:10;3.60;99.90
41694;DHT22;27377;50.666;9.150;2023-03-08T14:42:44;3.60;99.90
41694;DHT22;27377;50.666;9.150;2023-03-08T14:47:54;3.60;99.90
41694;DHT22;27377;50.666;9.150;2023-03-08T14:52:53;3.60;99.90
41694;DHT22;27377;50.666;9.150;2023-03-08T14:55:23;3.60;99.90
41694;DHT22;27377;50.666;9.150;2023-03-08T14:57:58;3.60;99.90
41694;DHT22;27377;50.666;9.150;2023-03-08T15:00:26;3.60;99.90
41694;DHT22;27377;50.666;9.150;2023-03-08T15:02:54;3.60;99.90
41694;DHT22;27377;50.666;9.150;2023-03-08T15:05:21;3.60;99.90
41694;DHT22;27377;50.666;9.150;2023-03-08T15:07:49;3.70;99.90
41694;DHT22;27377;50.666;9.150;2023-03-08T15:10:31;3.60;99.90
41694;DHT22;27377;50.666;9.150;2023-03-08T15:12:58;3.60;99.90
41694;DHT22;27377;50.666;9.150;2023-03-08T15:15:24;3.70;99.90
41694;DHT22;27377;50.666;9.150;2023-03-08T15:17:51;3.70;99.90
41694;DHT22;27377;50.666;9.150;2023-03-08T15:20:17;3.70;99.90
41694;DHT22;27377;50.666;9.150;2023-03-08T15:22:57;3.70;99.90
41694;DHT22;27377;50.666;9.150;2023-03-08T15:25:29;3.70;99.90
41694;DHT22;27377;50.666;9.150;2023-03-08T15:27:55;3.70;99.90
41694;DHT22;27377;50.666;9.150;2023-03-08T15:30:26;3.70;99.90
41694;DHT22;27377;50.666;9.150;2023-03-08T15:32:55;3.60;99.90
41694;DHT22;27377;50.666;9.150;2023-03-08T15:35:22;3.60;99.90
41694;DHT22;27377;50.666;9.150;2023-03-08T15:37:51;3.70;99.90
41694;DHT22;27377;50.666;9.150;2023-03-08T15:40:25;3.60;99.90
41694;DHT22;27377;50.666;9.150;2023-03-08T15:42:52;3.60;99.90
41694;DHT22;27377;50.666;9.150;2023-03-08T15:45:18;3.60;99.90
41694;DHT22;27377;50.666;9.150;2023-03-08T15:48:04;3.70;99.90
41694;DHT22;27377;50.666;9.150;2023-03-08T15:50:31;3.70;99.90
41694;DHT22;27377;50.666;9.150;2023-03-08T15:52:58;3.70;99.90
41694;DHT22;27377;50.666;9.150;2023-03-08T15:55:25;3.70;99.90
41694;DHT22;27377;50.666;9.150;2023-03-08T15:57:51;3.60;99.90
41694;DHT22;27377;50.666;9.150;2023-03-08T16:00:19;3.70;99.90
41694;DHT22;27377;50.666;9.150;2023-03-08T16:02:45;3.70;99.90
41694;DHT22;27377;50.666;9.150;2023-03-08T16:05:12;3.60;99.90
41694;DHT22;27377;50.666;9.150;2023-03-08T16:08:00;3.60;99.90
41694;DHT22;27377;50.666;9.150;2023-03-08T16:10:28;3.60;99.90
41694;DHT22;27377;50.666;9.150;2023-03-08T16:12:57;3.60;99.90
41694;DHT22;27377;50.666;9.150;2023-03-08T16:15:23;3.70;99.90
41694;DHT22;27377;50.666;9.150;2023-03-08T16:17:49;3.60;99.90
41694;DHT22;27377;50.666;9.150;2023-03-08T16:20:15;3.60;99.90
41694;DHT22;27377;50.666;9.150;2023-03-08T16:22:41;3.60;99.90
41694;DHT22;27377;50.666;9.150;2023-03-08T16:25:13;3.60;99.90
41694;DHT22;27377;50.666;9.150;2023-03-08T16:27:38;3.60;99.90
41694;DHT22;27377;50.666;9.150;2023-03-08T16:30:10;3.60;99.90
41694;DHT22;27377;50.666;9.150;2023-03-08T16:32:39;3.60;99.90
41694;DHT22;27377;50.666;9.150;2023-03-08T16:35:04;3.60;99.90
41694;DHT22;27377;50.666;9.150;2023-03-08T16:37:30;3.60;99.90
41694;DHT22;27377;50.666;9.150;2023-03-08T16:39:56;3.60;99.90
41694;DHT22;27377;50.666;9.150;2023-03-08T16:42:29;3.60;99.90
41694;DHT22;27377;50.666;9.150;2023-03-08T16:44:55;3.60;99.90
41694;DHT22;27377;50.666;9.150;2023-03-08T16:47:24;3.60;99.90
41694;DHT22;27377;50.666;9.150;2023-03-08T16:49:51;3.60;99.90
41694;DHT22;27377;50.666;9.150;2023-03-08T16:52:20;3.60;99.90
41694;DHT22;27377;50.666;9.150;2023-03-08T16:54:46;3.50;99.90
41694;DHT22;27377;50.666;9.150;2023-03-08T16:57:16;3.50;99.90
41694;DHT22;27377;50.666;9.150;2023-03-08T16:59:42;3.50;99.90
41694;DHT22;27377;50.666;9.150;2023-03-08T17:02:16;3.50;99.90
41694;DHT22;27377;50.666;9.150;2023-03-08T17:04:45;3.50;99.90
41694;DHT22;27377;50.666;9.150;2023-03-08T17:07:15;3.50;99.90